Nearby METAR Reports

 

PAEN - Kenai, Alaska, USA
Distance from station: ESE 2mi, 4km
Updated: Mon, 26-Jul-2021 10:23pm AKDT
Partly cloudy
Partly cloudy
 Wind from calm
Wind: Calm
Temperature: 52°F , 11°C
Dew Point: 50°F , 10°C
Humidity: 94%
Barometer: 29.97 inHg , 1014.9 hPa
Clouds: Partly cloudy
Visibility: 10 miles , 16 km
Cloud details: Partly cloudy 400 ft
2021/07/27 06:23 PAEN 270623Z AUTO 00000KT 10SM SCT004 11/10 A2997 RMK AO2 T01060100 TSNO
PASX - Soldotna, Alaska, USA
Distance from station: SE 12mi, 19km
Updated: Mon, 26-Jul-2021 9:56pm AKDT
Clear
Clear
 Wind from WNW
Wind: WNW 3 mph , 6 km/h
Temperature: 54°F , 12°C
Dew Point: 50°F , 10°C
Humidity: 88%
Barometer: 29.99 inHg , 1015.6 hPa
Clouds: Clear
Visibility: 10 miles , 16 km
2021/07/27 05:56 PASX 270556Z AUTO 29003KT 10SM CLR 12/10 A2999 RMK AO2 SLP163 T01220100 10178 20122 53002
 
PANC - Anchorage Intl, Alaska, USA
Distance from station: NE 59mi, 96km
Updated: Mon, 26-Jul-2021 9:53pm AKDT
Partly cloudy
Partly cloudy
 Wind from NW
Wind: NW 7 mph , 11 km/h
Temperature: 57°F , 14°C
Dew Point: 52°F , 11°C
Humidity: 82%
Barometer: 29.95 inHg , 1014.2 hPa
Clouds: Partly cloudy
Visibility: 10 miles , 16 km
Cloud details: Few Clouds 300 ft
Few Clouds 4500 ft
Few Clouds 15000 ft
Partly cloudy 25000 ft
2021/07/27 05:53 PANC 270553Z 31006KT 10SM FEW003 FEW045 FEW150 SCT250 14/11 A2995 RMK AO2 SLP142 T01390106 10194 20139 53004
PALH - Anchorage/Lake H, Alaska, USA
Distance from station: NE 61mi, 99km
Updated: Mon, 26-Jul-2021 9:53pm AKDT
Clear
Clear
 Wind from NW
Wind: NW 7 mph , 11 km/h
Temperature: 57°F , 14°C
Dew Point: 54°F , 12°C
Humidity: 88%
Barometer: 29.96 inHg , 1014.6 hPa
Clouds: Clear
Visibility: 10 miles , 16 km
2021/07/27 05:53 PALH 270553Z 31006KT 10SM CLR 14/12 A2996 RMK AO2 SLP145 T01440117 10194 20144 53005
 
PAHO - Homer, Alaska, USA
Distance from station: S 66mi, 106km
Updated: Mon, 26-Jul-2021 9:53pm AKDT
Clear
Clear
 Wind from W
Wind: W 8 mph , 13 km/h
Temperature: 57°F , 14°C
Dew Point: 45°F , 7°C
Humidity: 63%
Barometer: 29.99 inHg , 1015.6 hPa
Clouds: Clear
Visibility: 10 miles , 16 km
2021/07/27 05:53 PAHO 270553Z AUTO 28007KT 10SM CLR 14/07 A2999 RMK AO2 SLP155 T01440072 10167 20133 53001 TSNO
PAMR - Anchorage/Merril, Alaska, USA
Distance from station: NE 66mi, 106km
Updated: Mon, 26-Jul-2021 6:53am AKDT
NOT Current
Mostly cloudy
Mostly cloudy
 Wind from calm
Wind: Calm
Temperature: 54°F , 12°C
Dew Point: 46°F , 8°C
Humidity: 77%
Barometer: 30.01 inHg , 1016.3 hPa
Clouds: Mostly cloudy
Visibility: 10 miles , 16 km
Cloud details: Partly cloudy 4400 ft
Mostly cloudy 9000 ft
2021/07/26 14:53 PAMR 261453Z 00000KT 10SM SCT044 BKN090 12/08 A3001 RMK SLP162 T01220078
 
PAED - Elmendorf Afb, Alaska, USA
Distance from station: NE 69mi, 110km
Updated: Mon, 26-Jul-2021 9:56pm AKDT
Mostly cloudy
Mostly cloudy
 Wind from WSW
Wind: WSW 5 mph , 7 km/h
Temperature: 57°F , 14°C
Dew Point: 52°F , 11°C
Humidity: 82%
Barometer: 29.94 inHg , 1013.9 hPa
Clouds: Mostly cloudy
Visibility: 10 miles , 16 km
Cloud details: Few Clouds 5000 ft
Few Clouds 10000 ft
Mostly cloudy 20000 ft
2021/07/27 05:56 PAED 270556Z 25004KT 10SM FEW050 FEW100 BKN200 14/11 A2994 RMK AO2A SLP134 T01380113 10192 20138 53005 $
PAWD - Seward, Alaska, USA
Distance from station: ESE 71mi, 115km
Updated: Mon, 26-Jul-2021 9:53pm AKDT
Clear
Clear
 Wind from calm
Wind: Calm
Temperature: 55°F , 13°C
Dew Point: 50°F , 10°C
Humidity: 82%
Barometer: 29.93 inHg , 1013.5 hPa
Clouds: Clear
Visibility: 10 miles , 16 km
2021/07/27 05:53 PAWD 270553Z AUTO 00000KT 10SM CLR 13/10 A2993 RMK AO2 SLP136 T01330100 10183 20133 53008 TSNO
 
PASC - Deadhorse, Alaska, USA
Distance from station: ENE 670mi, 1078km
Updated: Mon, 26-Jul-2021 9:53pm AKDT
Mostly cloudy
Mostly cloudy
 Wind from ESE
Wind: ESE 6 mph , 9 km/h
Temperature: 54°F , 12°C
Dew Point: 52°F , 11°C
Humidity: 94%
Barometer: 29.77 inHg , 1008.1 hPa
Clouds: Mostly cloudy
Visibility: 10 miles , 16 km
Cloud details: Few Clouds 700 ft
Partly cloudy 7000 ft
Mostly cloudy 11000 ft
2021/07/27 05:53 PASC 270553Z 11005KT 10SM FEW007 SCT070 BKN110 12/11 A2977 RMK AO2 SLP080 60000 T01170106 10133 20117 56002
PAAD - Point Thomson, Alaska, USA
Distance from station: ENE 680mi, 1094km
Updated: Mon, 26-Jul-2021 10:15pm AKDT
Overcast
Overcast
 Wind from ENE
Wind: ENE 5 mph , 7 km/h
Temperature: 45°F , 7°C
Wind Chill: 42°F , 6°C
Dew Point: 45°F , 7°C
Humidity: 100%
Barometer: 29.78 inHg , 1008.5 hPa
Clouds: Overcast
Visibility: 10 miles , 16 km
Cloud details: Overcast 2200 ft
2021/07/27 06:15 PAAD 270615Z AUTO 07004KT 10SM OVC022 07/07 A2978 RMK AO2 T00730068 PWINO


kenaipeople.com website

Dans Automotive

Lower Peninsula Power Sports

Freddies RoadHouse

Alaska Weather Net